Terminal Aerodrome Forecast
Issued by NWS

Home | Current Version | Previous Version | Text Only | Print | Product List | Glossary On
Versions: 1 2 3 4 5 6 7 8 9 10 11 12 13 14 15
401
FTUS45 KTFX 212344
TAFHVR
TAF
KHVR 212344Z 2200/2224 33007KT P6SM SCT070 BKN180
     FM220700 36006KT P6SM SCT035 BKN050 PROB30 2212/2216 4SM -RASN
      BR BKN025
     FM221600 03008KT P6SM -SHRA SCT008 OVC012
     FM221900 04009KT P6SM OVC020 PROB30 2219/2224 4SM -RA OVC012=

USA.gov is the U.S. government's official web portal to all federal, state and local government web resources and services.